createdAt,value
2022-11-21T00:01:26.132Z,5.40
2022-11-21T00:03:53.059Z,5.70
2022-11-21T00:06:20.370Z,5.50
2022-11-21T00:08:47.677Z,5.60
2022-11-21T00:11:15.162Z,5.70
2022-11-21T00:16:15.965Z,5.80
2022-11-21T00:21:17.581Z,5.80
2022-11-21T00:23:46.009Z,6.20
2022-11-21T00:26:15.118Z,5.80
2022-11-21T00:28:42.167Z,5.80
2022-11-21T00:31:17.492Z,5.80
2022-11-21T00:33:44.383Z,5.50
2022-11-21T00:36:11.519Z,5.70
2022-11-21T00:38:38.566Z,5.60
2022-11-21T00:41:06.350Z,5.60
2022-11-21T00:43:35.635Z,5.50
2022-11-21T00:46:03.315Z,5.70
2022-11-21T00:48:32.224Z,5.60
2022-11-21T00:51:00.574Z,5.50
2022-11-21T00:53:28.201Z,5.50
2022-11-21T00:55:55.403Z,5.80
2022-11-21T00:58:22.282Z,5.60
2022-11-21T01:00:49.343Z,5.60
2022-11-21T01:03:16.365Z,5.70
2022-11-21T01:05:43.456Z,5.50
2022-11-21T01:08:10.345Z,5.60
2022-11-21T01:10:37.295Z,5.50
2022-11-21T01:15:31.515Z,5.50
2022-11-21T01:17:58.391Z,5.60
2022-11-21T01:20:25.273Z,5.60
2022-11-21T01:22:52.265Z,5.70
2022-11-21T01:25:19.160Z,5.70
2022-11-21T01:27:46.047Z,5.60
2022-11-21T01:30:14.460Z,5.30
2022-11-21T01:32:41.398Z,5.60
2022-11-21T01:35:08.711Z,5.50
2022-11-21T01:40:03.451Z,5.50
2022-11-21T01:42:52.291Z,5.60
2022-11-21T01:45:54.741Z,5.50
2022-11-21T01:48:29.798Z,5.40
2022-11-21T01:51:04.288Z,5.30
2022-11-21T01:53:31.511Z,4.90
2022-11-21T01:55:58.578Z,5.20
2022-11-21T01:58:26.155Z,5.30
2022-11-21T02:00:53.177Z,5.30
2022-11-21T02:03:25.430Z,5.40
2022-11-21T02:05:52.679Z,5.20
2022-11-21T02:08:21.631Z,5.30
2022-11-21T02:11:02.504Z,4.60
2022-11-21T02:13:29.470Z,5.30
2022-11-21T02:21:11.210Z,5.30
2022-11-21T02:24:08.843Z,5.30
2022-11-21T02:26:36.092Z,5.30
2022-11-21T02:31:30.318Z,5.20
2022-11-21T02:33:57.216Z,5.10
2022-11-21T02:36:43.384Z,5.40
2022-11-21T02:39:24.082Z,5.20
2022-11-21T02:42:04.532Z,4.80
2022-11-21T02:44:55.358Z,5.20
2022-11-21T02:47:23.895Z,5.70
2022-11-21T02:50:16.723Z,5.20
2022-11-21T02:52:43.611Z,5.30
2022-11-21T02:55:11.893Z,4.80
2022-11-21T02:57:40.088Z,6.50
2022-11-21T03:00:08.930Z,5.70
2022-11-21T03:02:37.074Z,5.90
2022-11-21T03:05:06.438Z,5.40
2022-11-21T03:10:00.879Z,6.20
2022-11-21T03:12:27.767Z,4.50
2022-11-21T03:14:54.665Z,5.10
2022-11-21T03:17:21.817Z,4.90
2022-11-21T03:19:48.741Z,5.10
2022-11-21T03:24:46.069Z,4.90
2022-11-21T03:27:12.944Z,5.30
2022-11-21T03:29:39.854Z,5.30
2022-11-21T03:32:06.770Z,5.10
2022-11-21T03:34:33.693Z,5.00
2022-11-21T03:37:00.732Z,5.20
2022-11-21T03:46:51.389Z,5.20
2022-11-21T03:49:18.250Z,5.10
2022-11-21T03:51:45.452Z,4.80
2022-11-21T03:54:12.661Z,6.50
2022-11-21T03:56:39.808Z,4.70
2022-11-21T03:59:06.964Z,5.00
2022-11-21T04:01:36.872Z,4.80
2022-11-21T04:04:04.955Z,4.80
2022-11-21T04:06:32.191Z,4.90
2022-11-21T04:08:59.066Z,5.10
2022-11-21T04:11:25.977Z,5.00
2022-11-21T04:13:53.039Z,4.90
2022-11-21T04:16:20.450Z,5.10
2022-11-21T04:18:47.591Z,5.00
2022-11-21T04:21:14.502Z,5.20
2022-11-21T04:23:41.393Z,4.90
2022-11-21T04:26:08.454Z,4.90
2022-11-21T04:28:35.325Z,5.00
2022-11-21T04:31:09.975Z,4.90
2022-11-21T04:33:38.621Z,5.00
2022-11-21T04:36:07.516Z,5.10
2022-11-21T04:38:34.468Z,5.10
2022-11-21T04:41:01.732Z,5.10
2022-11-21T04:43:28.637Z,5.00
2022-11-21T04:45:55.547Z,5.10
2022-11-21T04:48:22.482Z,5.00
2022-11-21T04:50:49.479Z,5.00
2022-11-21T04:53:16.382Z,6.20
2022-11-21T04:55:43.998Z,5.00
2022-11-21T05:00:38.223Z,5.10
2022-11-21T05:03:06.408Z,4.90
2022-11-21T05:05:33.471Z,5.10
2022-11-21T05:08:00.547Z,5.20
2022-11-21T05:10:27.444Z,4.90
2022-11-21T05:13:19.802Z,4.90
2022-11-21T05:15:47.553Z,4.20
2022-11-21T05:18:14.411Z,5.00
2022-11-21T05:20:41.304Z,5.00
2022-11-21T05:23:08.202Z,5.10
2022-11-21T05:28:02.381Z,5.10
2022-11-21T05:37:57.317Z,4.90
2022-11-21T05:40:25.371Z,5.00
2022-11-21T05:45:38.932Z,4.90
2022-11-21T05:48:09.230Z,5.20
2022-11-21T05:50:36.876Z,5.20
2022-11-21T05:53:05.461Z,5.10
2022-11-21T05:55:34.513Z,5.10
2022-11-21T05:58:01.784Z,5.20
2022-11-21T06:00:29.673Z,5.20
2022-11-21T06:08:09.976Z,5.20
2022-11-21T06:10:36.942Z,5.20
2022-11-21T06:13:04.131Z,5.30
2022-11-21T06:15:31.083Z,5.00
2022-11-21T06:18:01.321Z,5.10
2022-11-21T06:25:22.785Z,5.20
2022-11-21T06:27:49.671Z,5.30
2022-11-21T06:30:21.968Z,5.00
2022-11-21T06:32:49.324Z,5.50
2022-11-21T06:37:43.689Z,5.30
2022-11-21T06:40:11.679Z,5.30
2022-11-21T06:42:38.658Z,5.30
2022-11-21T06:45:06.189Z,5.20
2022-11-21T06:47:36.440Z,5.40
2022-11-21T06:50:03.970Z,5.30
2022-11-21T06:52:33.768Z,5.30
2022-11-21T06:55:00.711Z,5.50
2022-11-21T06:59:54.996Z,5.40
2022-11-21T07:09:44.793Z,5.50
2022-11-21T07:12:31.058Z,5.20
2022-11-21T07:27:16.946Z,5.30
2022-11-21T07:44:30.020Z,5.30
2022-11-21T08:09:07.658Z,5.50
2022-11-21T08:11:39.192Z,4.90
2022-11-21T08:14:06.239Z,5.20
2022-11-21T08:17:25.727Z,5.50
2022-11-21T08:19:52.757Z,5.50
2022-11-21T08:22:19.707Z,5.40
2022-11-21T08:32:11.593Z,5.50
2022-11-21T08:50:31.788Z,5.80
2022-11-21T09:00:26.204Z,5.80
2022-11-21T09:02:59.130Z,6.10
2022-11-21T09:07:58.220Z,6.00
2022-11-21T09:10:26.915Z,6.00
2022-11-21T09:12:53.961Z,5.80
2022-11-21T09:18:07.952Z,6.10
2022-11-21T09:20:41.501Z,6.10
2022-11-21T09:23:14.752Z,6.10
2022-11-21T09:25:42.523Z,5.90
2022-11-21T09:28:11.981Z,6.30
2022-11-21T09:33:13.241Z,6.30
2022-11-21T09:35:40.416Z,6.00
2022-11-21T09:38:07.300Z,6.40
2022-11-21T09:40:36.038Z,6.20
2022-11-21T09:43:27.961Z,6.40
2022-11-21T09:46:15.343Z,6.20
2022-11-21T09:49:05.463Z,6.20
2022-11-21T09:51:32.389Z,6.30
2022-11-21T09:56:36.197Z,6.20
2022-11-21T09:59:33.058Z,6.70
2022-11-21T10:02:00.173Z,6.20
2022-11-21T10:04:27.877Z,6.20
2022-11-21T10:07:12.180Z,6.30
2022-11-21T10:10:12.450Z,6.40
2022-11-21T10:13:21.101Z,6.30
2022-11-21T10:16:03.463Z,6.20
2022-11-21T10:18:53.309Z,6.20
2022-11-21T10:22:05.632Z,6.20
2022-11-21T10:27:31.959Z,6.20
2022-11-21T10:30:07.532Z,5.60
2022-11-21T10:32:47.475Z,6.40
2022-11-21T10:35:24.335Z,6.40
2022-11-21T10:38:01.015Z,6.40
2022-11-21T10:41:14.697Z,6.20
2022-11-21T10:44:22.887Z,6.40
2022-11-21T10:49:29.409Z,6.50
2022-11-21T10:52:20.127Z,6.70
2022-11-21T10:55:03.642Z,6.70
2022-11-21T10:57:51.018Z,7.00
2022-11-21T11:00:26.122Z,6.60
2022-11-21T11:03:05.890Z,6.60
2022-11-21T11:08:14.083Z,6.80
2022-11-21T11:10:46.583Z,6.80
2022-11-21T11:13:49.870Z,6.60
2022-11-21T11:16:22.191Z,6.60
2022-11-21T11:19:00.405Z,7.00
2022-11-21T11:21:30.606Z,5.80
2022-11-21T11:24:09.637Z,6.50
2022-11-21T11:26:59.753Z,6.40
2022-11-21T11:29:34.843Z,6.50
2022-11-21T11:32:22.659Z,6.50
2022-11-21T11:35:13.530Z,6.40
2022-11-21T11:37:41.915Z,6.50
2022-11-21T11:40:37.207Z,6.60
2022-11-21T11:43:43.788Z,6.50
2022-11-21T11:47:29.323Z,6.40
2022-11-21T11:50:11.381Z,6.40
2022-11-21T11:53:07.693Z,6.40
2022-11-21T11:55:57.795Z,6.70
2022-11-21T12:01:12.608Z,9.20
2022-11-21T12:03:58.995Z,9.80
2022-11-21T12:10:04.226Z,11.50
2022-11-21T12:12:42.410Z,12.60
2022-11-21T12:15:44.509Z,12.40
2022-11-21T12:18:23.049Z,13.60
2022-11-21T12:21:02.423Z,13.70
2022-11-21T12:23:35.789Z,12.80
2022-11-21T12:26:23.178Z,12.50
2022-11-21T12:29:44.678Z,11.80
2022-11-21T12:32:27.066Z,11.50
2022-11-21T12:35:20.273Z,11.20
2022-11-21T12:38:18.245Z,11.20
2022-11-21T12:41:29.211Z,10.60
2022-11-21T12:44:41.932Z,10.80
2022-11-21T12:47:56.569Z,10.50
2022-11-21T12:50:59.591Z,9.50
2022-11-21T12:54:33.749Z,8.80
2022-11-21T12:57:11.884Z,7.30
2022-11-21T13:00:15.144Z,8.40
2022-11-21T13:03:23.403Z,8.30
2022-11-21T13:05:53.547Z,8.40
2022-11-21T13:08:29.246Z,8.20
2022-11-21T13:11:46.340Z,8.30
2022-11-21T13:15:02.190Z,9.60
2022-11-21T13:17:33.439Z,8.30
2022-11-21T13:20:27.202Z,8.60
2022-11-21T13:23:01.071Z,8.30
2022-11-21T13:25:41.677Z,8.50
2022-11-21T13:28:11.671Z,8.40
2022-11-21T13:30:51.590Z,7.80
2022-11-21T13:33:39.212Z,8.50
2022-11-21T13:36:10.536Z,8.30
2022-11-21T13:38:55.412Z,8.50
2022-11-21T13:41:52.979Z,8.30
2022-11-21T13:44:32.198Z,8.10
2022-11-21T13:47:02.504Z,8.30
2022-11-21T13:49:57.075Z,8.10
2022-11-21T13:52:55.194Z,8.10
2022-11-21T13:55:57.940Z,7.60
2022-11-21T13:58:27.700Z,8.40
2022-11-21T14:01:18.636Z,8.00
2022-11-21T14:03:59.000Z,8.10
2022-11-21T14:06:43.339Z,8.10
2022-11-21T14:09:13.357Z,8.20
2022-11-21T14:12:03.607Z,8.00
2022-11-21T14:15:02.421Z,8.00
2022-11-21T14:17:47.322Z,7.90
2022-11-21T14:20:26.531Z,7.80
2022-11-21T14:22:53.310Z,8.30
2022-11-21T14:25:27.540Z,8.00
2022-11-21T14:30:33.936Z,8.60
2022-11-21T14:33:29.345Z,7.90
2022-11-21T14:36:09.624Z,7.90
2022-11-21T14:42:02.447Z,7.70
2022-11-21T14:47:23.501Z,7.80
2022-11-21T14:49:54.655Z,7.70
2022-11-21T14:52:26.875Z,7.80
2022-11-21T14:57:47.254Z,8.50
2022-11-21T15:03:23.384Z,7.70
2022-11-21T15:11:34.764Z,7.60
2022-11-21T15:14:16.048Z,7.90
2022-11-21T15:16:48.074Z,7.60
2022-11-21T15:19:33.758Z,7.40
2022-11-21T15:22:04.142Z,7.50
2022-11-21T15:24:43.732Z,7.40
2022-11-21T15:27:31.823Z,7.50
2022-11-21T15:30:10.973Z,7.40
2022-11-21T15:33:11.694Z,7.50
2022-11-21T15:35:38.525Z,7.50
2022-11-21T15:38:25.612Z,7.50
2022-11-21T15:41:15.950Z,7.30
2022-11-21T15:43:48.132Z,7.40
2022-11-21T15:46:25.215Z,7.40
2022-11-21T15:48:55.202Z,7.40
2022-11-21T15:51:59.715Z,7.00
2022-11-21T15:54:21.367Z,7.30
2022-11-21T15:56:48.621Z,7.20
2022-11-21T15:59:16.002Z,7.30
2022-11-21T16:01:43.215Z,7.30
2022-11-21T16:04:12.664Z,7.30
2022-11-21T16:06:42.031Z,7.20
2022-11-21T16:09:09.012Z,7.20
2022-11-21T16:11:40.470Z,7.30
2022-11-21T16:14:08.705Z,6.00
2022-11-21T16:16:43.419Z,7.10
2022-11-21T16:19:14.774Z,7.20
2022-11-21T16:21:42.358Z,7.50
2022-11-21T16:24:09.281Z,7.20
2022-11-21T16:26:36.157Z,7.20
2022-11-21T16:29:06.177Z,7.00
2022-11-21T16:31:34.554Z,7.00
2022-11-21T16:36:33.940Z,7.10
2022-11-21T16:39:08.899Z,6.20
2022-11-21T16:41:37.255Z,7.10
2022-11-21T16:46:31.583Z,7.00
2022-11-21T16:49:01.543Z,6.70
2022-11-21T16:51:29.519Z,6.70
2022-11-21T16:53:59.694Z,7.10
2022-11-21T16:56:30.130Z,7.00
2022-11-21T16:58:57.014Z,7.10
2022-11-21T17:01:26.247Z,7.50
2022-11-21T17:03:53.468Z,7.00
2022-11-21T17:06:24.902Z,6.60
2022-11-21T17:08:51.798Z,7.00
2022-11-21T17:11:23.880Z,6.70
2022-11-21T17:13:51.393Z,6.80
2022-11-21T17:16:22.480Z,6.80
2022-11-21T17:18:54.848Z,6.80
2022-11-21T17:21:22.601Z,6.80
2022-11-21T17:23:50.302Z,6.70
2022-11-21T17:26:21.166Z,6.50
2022-11-21T17:28:57.656Z,5.40
2022-11-21T17:31:25.010Z,6.80
2022-11-21T17:33:52.143Z,6.70
2022-11-21T17:36:25.574Z,6.80
2022-11-21T17:38:54.397Z,6.70
2022-11-21T17:41:23.359Z,7.70
2022-11-21T17:43:55.843Z,5.50
2022-11-21T17:46:25.232Z,7.10
2022-11-21T17:48:57.088Z,6.70
2022-11-21T17:51:29.674Z,6.80
2022-11-21T17:53:57.347Z,6.80
2022-11-21T17:56:28.016Z,6.70
2022-11-21T17:58:55.535Z,7.70
2022-11-21T18:04:10.143Z,6.50
2022-11-21T18:06:40.749Z,5.40
2022-11-21T18:09:11.815Z,6.50
2022-11-21T18:11:40.417Z,6.50
2022-11-21T18:14:10.341Z,6.50
2022-11-21T18:16:39.231Z,6.60
2022-11-21T18:21:35.881Z,6.30
2022-11-21T18:24:02.982Z,6.50
2022-11-21T18:26:36.539Z,5.90
2022-11-21T18:29:35.146Z,6.00
2022-11-21T18:31:54.136Z,6.30
2022-11-21T18:36:48.523Z,5.90
2022-11-21T18:39:15.807Z,6.50
2022-11-21T18:41:43.690Z,6.40
2022-11-21T18:44:14.580Z,6.50
2022-11-21T18:46:44.180Z,6.60
2022-11-21T18:49:11.064Z,6.50
2022-11-21T18:54:08.508Z,6.40
2022-11-21T18:56:37.363Z,6.50
2022-11-21T18:59:06.270Z,6.30
2022-11-21T19:01:35.626Z,6.00
2022-11-21T19:04:03.361Z,6.30
2022-11-21T19:08:58.650Z,6.40
2022-11-21T19:11:28.856Z,6.40
2022-11-21T19:13:57.519Z,6.30
2022-11-21T19:16:27.073Z,6.40
2022-11-21T19:19:26.443Z,7.30
2022-11-21T19:21:43.412Z,6.50
2022-11-21T19:24:13.336Z,6.80
2022-11-21T19:29:09.715Z,6.10
2022-11-21T19:31:44.160Z,6.30
2022-11-21T19:34:16.992Z,4.80
2022-11-21T19:36:45.354Z,6.20
2022-11-21T19:39:12.772Z,6.20
2022-11-21T19:41:40.235Z,6.30
2022-11-21T19:44:07.205Z,6.10
2022-11-21T19:46:39.674Z,6.30
2022-11-21T19:49:08.398Z,6.20
2022-11-21T19:51:42.479Z,6.10
2022-11-21T19:54:12.171Z,6.10
2022-11-21T19:59:06.734Z,5.10
2022-11-21T20:01:34.815Z,5.20
2022-11-21T20:04:04.636Z,6.00
2022-11-21T20:06:45.822Z,6.10
2022-11-21T20:09:16.615Z,6.10
2022-11-21T20:11:46.915Z,6.20
2022-11-21T20:14:21.015Z,6.10
2022-11-21T20:16:49.783Z,6.10
2022-11-21T20:19:19.297Z,6.20
2022-11-21T20:21:47.339Z,6.20
2022-11-21T20:24:14.793Z,6.10
2022-11-21T20:26:42.717Z,6.20
2022-11-21T20:29:12.865Z,6.40
2022-11-21T20:34:12.695Z,6.20
2022-11-21T20:36:40.792Z,6.20
2022-11-21T20:39:14.019Z,4.70
2022-11-21T20:47:09.067Z,6.30
2022-11-21T20:54:50.669Z,6.20
2022-11-21T20:57:17.570Z,6.10
2022-11-21T21:02:13.613Z,6.10
2022-11-21T21:04:40.489Z,6.20
2022-11-21T21:07:07.446Z,6.20
2022-11-21T21:12:01.871Z,6.20
2022-11-21T21:14:28.944Z,5.90
2022-11-21T21:19:23.271Z,5.80
2022-11-21T21:21:50.222Z,6.10
2022-11-21T21:26:47.577Z,6.00
2022-11-21T21:29:19.179Z,5.90
2022-11-21T21:31:51.065Z,6.10
2022-11-21T21:34:20.850Z,6.00
2022-11-21T21:36:48.539Z,6.10
2022-11-21T21:39:15.443Z,6.10
2022-11-21T21:46:41.136Z,6.20
2022-11-21T21:49:08.372Z,6.20
2022-11-21T21:51:37.083Z,6.10
2022-11-21T21:54:04.497Z,6.30
2022-11-21T21:56:31.526Z,6.20
2022-11-21T22:01:31.897Z,6.20
2022-11-21T22:04:03.968Z,6.10
2022-11-21T22:06:33.860Z,6.30
2022-11-21T22:09:01.061Z,6.20
2022-11-21T22:11:36.438Z,4.80
2022-11-21T22:14:07.515Z,6.20
2022-11-21T22:16:34.453Z,6.20
2022-11-21T22:19:01.318Z,6.10
2022-11-21T22:21:34.992Z,6.30
2022-11-21T22:24:27.803Z,6.10
2022-11-21T22:29:22.320Z,6.20
2022-11-21T22:34:17.755Z,6.20
2022-11-21T22:36:44.781Z,6.00
2022-11-21T22:39:11.751Z,6.50
2022-11-21T22:44:06.551Z,5.80
2022-11-21T22:49:00.844Z,5.70
2022-11-21T22:51:29.692Z,6.20
2022-11-21T22:54:00.120Z,6.10
2022-11-21T23:01:25.502Z,6.10
2022-11-21T23:06:23.536Z,6.00
2022-11-21T23:11:25.827Z,6.20
2022-11-21T23:13:52.839Z,6.20
2022-11-21T23:16:21.027Z,6.10
2022-11-21T23:18:48.799Z,6.10
2022-11-21T23:26:11.855Z,4.90
2022-11-21T23:28:39.010Z,5.90
2022-11-21T23:31:06.110Z,6.10
2022-11-21T23:33:33.057Z,6.10
2022-11-21T23:36:00.291Z,6.60
2022-11-21T23:38:27.232Z,6.00
2022-11-21T23:40:54.218Z,6.00
2022-11-21T23:43:21.109Z,6.10
2022-11-21T23:45:52.343Z,6.00
2022-11-21T23:48:20.199Z,6.20
2022-11-21T23:50:48.247Z,6.00
2022-11-21T23:53:15.180Z,6.20
2022-11-21T23:55:43.724Z,6.10
2022-11-21T23:58:11.475Z,6.10
